Time;durP1;ratioP1;P1;durP2;ratioP2;P2;SDS_P1;SDS_P2;PMS_P1;PMS_P2;Temp;Humidity;BMP_temperature;BMP_pressure;BME280_temperature;BME280_humidity;BME280_pressure;Samples;Min_cycle;Max_cycle;Signal;HPM_P1;HPM_P2
2023/09/04 00:00:50;;;;;;;;;;;;;;;22.59;nan;102781.75;5059186;28;19927;-81
2023/09/04 00:03:15;;;;;;;;;;;;;;;22.52;nan;102783.97;5062762;28;19920;-82
2023/09/04 00:05:40;;;;;;;;;;;;;;;22.46;nan;102785.09;5060685;28;19928;-81
2023/09/04 00:08:06;;;;;;;;;;;;;;;22.42;nan;102767.63;5059467;28;19924;-81
2023/09/04 00:10:31;;;;;;;;;;;;;;;22.39;nan;102781.84;5064793;28;19970;-82
2023/09/04 00:12:56;;;;;;;;;;;;;;;22.35;nan;102791.69;5061305;28;19917;-82
2023/09/04 00:15:21;;;;;;;;;;;;;;;22.34;nan;102781.84;5062342;28;19924;-81
2023/09/04 00:17:50;;;;;;;;;;;;;;;22.32;nan;102786.78;5058924;28;20369;-81
2023/09/04 00:20:16;;;;;;;;;;;;;;;22.27;nan;102787.63;5060403;28;19959;-81
2023/09/04 00:22:42;;;;;;;;;;;;;;;22.24;nan;102788.16;5062517;28;20600;-82
2023/09/04 00:25:07;;;;;;;;;;;;;;;22.20;nan;102780.81;5054706;28;19991;-82
2023/09/04 00:27:32;;;;;;;;;;;;;;;22.16;nan;102782.47;5059968;28;19927;-82
2023/09/04 00:29:58;;;;;;;;;;;;;;;22.13;nan;102781.09;5061523;28;19923;-82
2023/09/04 00:32:23;;;;;;;;;;;;;;;22.09;nan;102790.13;5062884;28;19955;-81
2023/09/04 00:34:48;;;;;;;;;;;;;;;22.05;nan;102789.03;5060900;28;20018;-81
2023/09/04 00:37:14;;;;;;;;;;;;;;;21.99;nan;102802.66;5060837;28;19920;-81
2023/09/04 00:39:39;;;;;;;;;;;;;;;21.95;nan;102801.56;5053693;28;19925;-81
2023/09/04 00:42:05;;;;;;;;;;;;;;;21.91;nan;102805.13;5057883;28;19932;-81
2023/09/04 00:44:30;;;;;;;;;;;;;;;21.88;nan;102806.47;5058383;28;19974;-81
2023/09/04 00:46:56;;;;;;;;;;;;;;;21.85;nan;102795.31;5058957;28;19928;-82
2023/09/04 00:49:21;;;;;;;;;;;;;;;21.82;nan;102801.31;5060903;28;20292;-81
2023/09/04 00:51:47;;;;;;;;;;;;;;;21.81;nan;102800.50;5059950;28;19955;-81
2023/09/04 00:54:14;;;;;;;;;;;;;;;21.80;nan;102803.50;5053746;28;19916;-81
2023/09/04 00:56:39;;;;;;;;;;;;;;;21.79;nan;102790.94;5054772;28;19924;-81
2023/09/04 00:59:05;;;;;;;;;;;;;;;21.78;nan;102803.78;5062644;28;19923;-81
2023/09/04 01:01:30;;;;;;;;;;;;;;;21.76;nan;102786.88;5057439;28;20380;-81
2023/09/04 01:03:55;;;;;;;;;;;;;;;21.76;nan;102789.59;5056209;28;20222;-81
2023/09/04 01:06:21;;;;;;;;;;;;;;;21.73;nan;102787.41;5052868;28;19925;-81
2023/09/04 01:08:46;;;;;;;;;;;;;;;21.69;nan;102784.41;5059132;28;19917;-81
2023/09/04 01:11:31;;;;;;;;;;;;;;;21.64;nan;102783.59;5059455;28;20015;-81
2023/09/04 01:13:56;;;;;;;;;;;;;;;21.55;nan;102791.50;5059640;28;20035;-82
2023/09/04 01:16:23;;;;;;;;;;;;;;;21.51;nan;102789.59;5058622;28;20953;-82
2023/09/04 01:18:48;;;;;;;;;;;;;;;21.47;nan;102791.22;5058773;28;19931;-82
2023/09/04 01:21:14;;;;;;;;;;;;;;;21.44;nan;102789.03;5055423;28;19924;-81
2023/09/04 01:23:39;;;;;;;;;;;;;;;21.41;nan;102788.50;5057676;28;20342;-81
2023/09/04 01:26:19;;;;;;;;;;;;;;;21.38;nan;102786.31;5056927;28;19920;-81
2023/09/04 01:28:50;;;;;;;;;;;;;;;21.29;nan;102793.38;5059952;28;19974;-81
2023/09/04 01:31:18;;;;;;;;;;;;;;;21.25;nan;102796.94;5058565;28;20469;-81
2023/09/04 01:33:51;;;;;;;;;;;;;;;21.24;nan;102796.13;5062275;28;19920;-81
2023/09/04 01:36:17;;;;;;;;;;;;;;;21.22;nan;102795.53;5058946;28;20250;-81
2023/09/04 01:38:46;;;;;;;;;;;;;;;21.20;nan;102797.72;5054982;28;19976;-81
2023/09/04 01:41:11;;;;;;;;;;;;;;;21.17;nan;102800.97;5056348;28;20509;-81
2023/09/04 01:43:37;;;;;;;;;;;;;;;21.15;nan;102794.16;5056866;28;20135;-81
2023/09/04 01:46:02;;;;;;;;;;;;;;;21.16;nan;102788.41;5057713;28;19917;-81
2023/09/04 01:48:27;;;;;;;;;;;;;;;21.16;nan;102787.59;5061269;28;19921;-81
2023/09/04 01:50:54;;;;;;;;;;;;;;;21.13;nan;102784.34;5062893;28;19925;-82
2023/09/04 01:53:19;;;;;;;;;;;;;;;21.13;nan;102783.50;5063010;28;19924;-81
2023/09/04 01:55:44;;;;;;;;;;;;;;;21.10;nan;102778.59;5063237;28;20040;-81
2023/09/04 01:58:10;;;;;;;;;;;;;;;21.09;nan;102787.88;5063543;28;20389;-81
2023/09/04 02:00:35;;;;;;;;;;;;;;;21.06;nan;102782.97;5062554;28;19924;-81
2023/09/04 02:03:00;;;;;;;;;;;;;;;21.01;nan;102789.22;5064236;28;20047;-81
2023/09/04 02:05:26;;;;;;;;;;;;;;;20.99;nan;102793.28;5065147;28;20345;-81
2023/09/04 02:07:51;;;;;;;;;;;;;;;20.95;nan;102803.91;5059377;28;20066;-81
2023/09/04 02:10:16;;;;;;;;;;;;;;;20.94;nan;102799.53;5061626;28;19977;-81
2023/09/04 02:12:42;;;;;;;;;;;;;;;20.91;nan;102799.28;5063261;28;20399;-81
2023/09/04 02:15:07;;;;;;;;;;;;;;;20.91;nan;102802.00;5060945;28;20292;-81
2023/09/04 02:17:33;;;;;;;;;;;;;;;20.89;nan;102798.72;5067173;28;19920;-81
2023/09/04 02:19:59;;;;;;;;;;;;;;;20.87;nan;102803.63;5063693;28;19920;-81
2023/09/04 02:22:24;;;;;;;;;;;;;;;20.83;nan;102808.78;5061487;28;19920;-81
2023/09/04 02:24:50;;;;;;;;;;;;;;;20.79;nan;102805.75;5064318;28;19927;-82
2023/09/04 02:27:15;;;;;;;;;;;;;;;20.77;nan;102799.75;5062092;28;19985;-81
2023/09/04 02:29:40;;;;;;;;;;;;;;;20.74;nan;102796.75;5063146;28;19924;-81
2023/09/04 02:32:06;;;;;;;;;;;;;;;20.72;nan;102809.84;5061715;28;19921;-81
2023/09/04 02:34:31;;;;;;;;;;;;;;;20.68;nan;102808.72;5066346;28;19977;-82
2023/09/04 02:36:58;;;;;;;;;;;;;;;20.65;nan;102812.81;5062094;28;19925;-81
2023/09/04 02:39:23;;;;;;;;;;;;;;;20.64;nan;102823.94;5059412;28;19921;-81
2023/09/04 02:41:48;;;;;;;;;;;;;;;20.62;nan;102818.75;5063878;28;19916;-82
2023/09/04 02:44:14;;;;;;;;;;;;;;;20.61;nan;102819.84;5064481;28;20372;-81
2023/09/04 02:46:39;;;;;;;;;;;;;;;20.59;nan;102819.31;5061696;28;19924;-82
2023/09/04 02:49:04;;;;;;;;;;;;;;;20.57;nan;102826.09;5062559;28;20334;-81
2023/09/04 02:51:29;;;;;;;;;;;;;;;20.55;nan;102826.38;5063284;28;19916;-81
2023/09/04 02:53:55;;;;;;;;;;;;;;;20.50;nan;102829.06;5065621;28;19990;-81
2023/09/04 02:56:20;;;;;;;;;;;;;;;20.49;nan;102830.16;5063009;28;19927;-81
2023/09/04 02:58:45;;;;;;;;;;;;;;;20.49;nan;102830.16;5063455;28;20373;-81
2023/09/04 03:01:13;;;;;;;;;;;;;;;20.46;nan;102833.38;5063369;28;19924;-82
2023/09/04 03:03:38;;;;;;;;;;;;;;;20.46;nan;102825.22;5063280;28;20109;-81
2023/09/04 03:06:07;;;;;;;;;;;;;;;20.44;nan;102830.94;5064176;28;20059;-81
2023/09/04 03:08:33;;;;;;;;;;;;;;;20.40;nan;102828.97;5061189;28;20011;-81
2023/09/04 03:10:58;;;;;;;;;;;;;;;20.36;nan;102827.88;5062886;28;21207;-82
2023/09/04 03:13:23;;;;;;;;;;;;;;;20.35;nan;102831.69;5059672;28;19920;-81
2023/09/04 03:15:49;;;;;;;;;;;;;;;20.31;nan;102825.13;5062217;28;20433;-82
2023/09/04 03:18:14;;;;;;;;;;;;;;;20.27;nan;102826.72;5062002;28;19927;-82
2023/09/04 03:20:39;;;;;;;;;;;;;;;20.26;nan;102833.25;5065122;28;19920;-81
2023/09/04 03:23:04;;;;;;;;;;;;;;;20.23;nan;102829.97;5064679;28;20305;-81
2023/09/04 03:25:31;;;;;;;;;;;;;;;20.23;nan;102820.97;5066030;28;20291;-81
2023/09/04 03:27:57;;;;;;;;;;;;;;;20.22;nan;102830.22;5063205;28;19920;-81
2023/09/04 03:30:22;;;;;;;;;;;;;;;20.20;nan;102827.78;5064253;28;20404;-81
2023/09/04 03:32:49;;;;;;;;;;;;;;;20.19;nan;102831.56;5064109;28;20399;-81
2023/09/04 03:35:16;;;;;;;;;;;;;;;20.18;nan;102843.53;5062356;28;19962;-81
2023/09/04 03:37:42;;;;;;;;;;;;;;;20.16;nan;102850.34;5064751;28;19916;-81
2023/09/04 03:40:23;;;;;;;;;;;;;;;20.16;nan;102862.03;5058283;28;20415;-81
2023/09/04 03:42:50;;;;;;;;;;;;;;;20.17;nan;102858.25;5063626;28;20027;-81
2023/09/04 03:45:16;;;;;;;;;;;;;;;20.15;nan;102870.47;5059477;28;20388;-81
2023/09/04 03:47:44;;;;;;;;;;;;;;;20.13;nan;102859.03;5059629;28;19921;-81
2023/09/04 03:50:12;;;;;;;;;;;;;;;20.15;nan;102865.03;5060264;28;19924;-81
2023/09/04 03:52:38;;;;;;;;;;;;;;;20.18;nan;102857.16;5062545;28;20868;-81
2023/09/04 03:55:05;;;;;;;;;;;;;;;20.23;nan;102857.19;5060420;28;19924;-81
2023/09/04 03:57:30;;;;;;;;;;;;;;;20.26;nan;102853.09;5063308;28;20012;-81
2023/09/04 03:59:56;;;;;;;;;;;;;;;20.29;nan;102854.47;5063397;28;20014;-82
2023/09/04 04:02:21;;;;;;;;;;;;;;;20.32;nan;102862.16;5062576;28;19931;-81
2023/09/04 04:04:50;;;;;;;;;;;;;;;20.33;nan;102855.63;5060388;28;19929;-82
2023/09/04 04:07:16;;;;;;;;;;;;;;;20.33;nan;102861.06;5058383;28;20006;-82
2023/09/04 04:09:43;;;;;;;;;;;;;;;20.34;nan;102858.09;5061551;28;20005;-81
2023/09/04 04:12:09;;;;;;;;;;;;;;;20.37;nan;102865.72;5061414;28;19924;-81
2023/09/04 04:14:34;;;;;;;;;;;;;;;20.41;nan;102864.13;5062120;28;19921;-81
2023/09/04 04:17:01;;;;;;;;;;;;;;;20.42;nan;102863.06;5061516;28;19916;-82
2023/09/04 04:19:26;;;;;;;;;;;;;;;20.46;nan;102861.44;5060835;28;20385;-82
2023/09/04 04:21:52;;;;;;;;;;;;;;;20.48;nan;102870.19;5062859;28;19998;-82
2023/09/04 04:24:17;;;;;;;;;;;;;;;20.51;nan;102866.13;5064660;28;19924;-81
2023/09/04 04:26:43;;;;;;;;;;;;;;;20.54;nan;102862.84;5062827;28;20011;-81
2023/09/04 04:29:08;;;;;;;;;;;;;;;20.56;nan;102863.41;5060292;28;19924;-81
2023/09/04 04:31:34;;;;;;;;;;;;;;;20.58;nan;102869.41;5063713;28;19920;-81
2023/09/04 04:33:59;;;;;;;;;;;;;;;20.62;nan;102875.97;5058473;28;20423;-82
2023/09/04 04:36:24;;;;;;;;;;;;;;;20.65;nan;102870.00;5059121;28;20341;-81
2023/09/04 04:38:50;;;;;;;;;;;;;;;20.68;nan;102877.66;5053205;28;19916;-81
2023/09/04 04:41:15;;;;;;;;;;;;;;;20.72;nan;102878.75;5060007;28;20404;-81
2023/09/04 04:43:40;;;;;;;;;;;;;;;20.76;nan;102877.13;5063616;28;19920;-81
2023/09/04 04:46:09;;;;;;;;;;;;;;;20.80;nan;102883.69;5061531;28;19921;-81
2023/09/04 04:48:34;;;;;;;;;;;;;;;20.83;nan;102886.97;5062758;28;20392;-82
2023/09/04 04:50:59;;;;;;;;;;;;;;;20.86;nan;102892.72;5054008;28;19970;-81
2023/09/04 04:53:25;;;;;;;;;;;;;;;20.86;nan;102890.00;5063388;28;19924;-81
2023/09/04 04:55:50;;;;;;;;;;;;;;;20.89;nan;102891.38;5061567;28;19916;-81
2023/09/04 04:58:15;;;;;;;;;;;;;;;20.92;nan;102891.66;5059479;28;19924;-81
2023/09/04 05:00:41;;;;;;;;;;;;;;;20.95;nan;102887.56;5061246;28;21276;-81
2023/09/04 05:03:06;;;;;;;;;;;;;;;20.98;nan;102893.31;5058938;28;19995;-82
2023/09/04 05:05:31;;;;;;;;;;;;;;;21.01;nan;102898.25;5059380;28;19924;-81
2023/09/04 05:07:56;;;;;;;;;;;;;;;21.05;nan;102890.34;5057039;28;19974;-82
2023/09/04 05:10:22;;;;;;;;;;;;;;;21.07;nan;102899.06;5062326;28;19921;-81
2023/09/04 05:12:47;;;;;;;;;;;;;;;21.10;nan;102891.19;5062384;28;19924;-81
2023/09/04 05:15:12;;;;;;;;;;;;;;;21.11;nan;102895.53;5062725;28;19923;-81
2023/09/04 05:17:38;;;;;;;;;;;;;;;21.11;nan;102890.09;5058080;28;20414;-81
2023/09/04 05:20:03;;;;;;;;;;;;;;;21.16;nan;102889.28;5059215;28;19989;-81
2023/09/04 05:22:30;;;;;;;;;;;;;;;21.19;nan;102894.22;5059559;28;19916;-82
2023/09/04 05:24:55;;;;;;;;;;;;;;;21.24;nan;102891.53;5056851;28;19929;-81
2023/09/04 05:27:20;;;;;;;;;;;;;;;21.29;nan;102896.16;5057684;28;19924;-81
2023/09/04 05:29:46;;;;;;;;;;;;;;;21.32;nan;102895.63;5058195;28;20343;-81
2023/09/04 05:32:11;;;;;;;;;;;;;;;21.38;nan;102898.13;5057853;28;20159;-81
2023/09/04 05:34:39;;;;;;;;;;;;;;;21.43;nan;102886.41;5062142;28;19924;-81
2023/09/04 05:37:05;;;;;;;;;;;;;;;21.47;nan;102894.84;5058572;28;19924;-82
2023/09/04 05:39:30;;;;;;;;;;;;;;;21.52;nan;102892.94;5055662;28;19999;-81
2023/09/04 05:41:56;;;;;;;;;;;;;;;21.53;nan;102885.59;5062512;28;20034;-81
2023/09/04 05:44:23;;;;;;;;;;;;;;;21.56;nan;102874.16;5059826;28;20181;-82
2023/09/04 05:46:49;;;;;;;;;;;;;;;21.56;nan;102879.63;5056791;28;21759;-82
2023/09/04 05:49:14;;;;;;;;;;;;;;;21.58;nan;102885.63;5059866;28;20003;-82
2023/09/04 05:51:39;;;;;;;;;;;;;;;21.63;nan;102880.97;5061854;28;20455;-81
2023/09/04 05:54:04;;;;;;;;;;;;;;;21.77;nan;102880.44;5060551;28;19916;-82
2023/09/04 05:56:30;;;;;;;;;;;;;;;21.88;nan;102874.72;5059774;28;19916;-82
2023/09/04 05:58:56;;;;;;;;;;;;;;;21.97;nan;102875.00;5058630;28;19970;-82
2023/09/04 06:01:23;;;;;;;;;;;;;;;22.04;nan;102875.53;5061066;28;19939;-82
2023/09/04 06:03:49;;;;;;;;;;;;;;;22.15;nan;102865.47;5057378;28;20130;-82
2023/09/04 06:06:15;;;;;;;;;;;;;;;22.25;nan;102876.34;5060033;28;20031;-82
2023/09/04 06:08:41;;;;;;;;;;;;;;;22.36;nan;102871.69;5053946;28;20307;-81
2023/09/04 06:11:06;;;;;;;;;;;;;;;22.42;nan;102855.00;5057696;28;19917;-82
2023/09/04 06:13:32;;;;;;;;;;;;;;;22.46;nan;102861.59;5058332;28;19931;-82
2023/09/04 06:16:01;;;;;;;;;;;;;;;22.54;nan;102860.19;5060314;28;19943;-82
2023/09/04 06:18:30;;;;;;;;;;;;;;;22.62;nan;102865.06;5056707;28;19924;-82
2023/09/04 06:20:55;;;;;;;;;;;;;;;22.72;nan;102865.03;5057811;28;20387;-82
2023/09/04 06:23:20;;;;;;;;;;;;;;;22.80;nan;102867.22;5057226;28;19921;-82
2023/09/04 06:25:46;;;;;;;;;;;;;;;22.90;nan;102869.09;5055912;28;20516;-82
2023/09/04 06:28:12;;;;;;;;;;;;;;;23.05;nan;102871.78;5050836;28;20372;-82
2023/09/04 06:30:37;;;;;;;;;;;;;;;23.12;nan;102866.81;5054780;28;19921;-81
2023/09/04 06:33:03;;;;;;;;;;;;;;;23.17;nan;102864.06;5060442;28;19917;-82
2023/09/04 06:35:29;;;;;;;;;;;;;;;23.20;nan;102863.50;5060901;28;20177;-82
2023/09/04 06:37:54;;;;;;;;;;;;;;;23.29;nan;102863.69;5060169;28;19924;-82
2023/09/04 06:40:20;;;;;;;;;;;;;;;23.42;nan;102865.81;5058773;28;19920;-82
2023/09/04 06:42:45;;;;;;;;;;;;;;;23.52;nan;102870.41;5059403;28;20070;-82
2023/09/04 06:45:11;;;;;;;;;;;;;;;23.66;nan;102874.16;5062565;28;19923;-82
2023/09/04 06:47:38;;;;;;;;;;;;;;;23.79;nan;102868.03;5064133;28;19925;-82
2023/09/04 06:50:04;;;;;;;;;;;;;;;23.91;nan;102858.63;5065042;28;19970;-82
2023/09/04 06:52:29;;;;;;;;;;;;;;;24.05;nan;102854.91;5064174;28;19960;-82
2023/09/04 06:54:54;;;;;;;;;;;;;;;24.12;nan;102854.59;5064352;28;19921;-82
2023/09/04 06:57:19;;;;;;;;;;;;;;;24.17;nan;102849.06;5062376;28;19920;-82
2023/09/04 06:59:45;;;;;;;;;;;;;;;24.26;nan;102850.09;5061957;28;19917;-82
2023/09/04 07:02:10;;;;;;;;;;;;;;;24.42;nan;102850.78;5060458;28;19921;-82
2023/09/04 07:04:35;;;;;;;;;;;;;;;24.57;nan;102847.00;5065924;28;20330;-82
2023/09/04 07:07:01;;;;;;;;;;;;;;;24.76;nan;102841.56;5062985;28;20446;-82
2023/09/04 07:09:26;;;;;;;;;;;;;;;24.92;nan;102845.75;5060309;28;19970;-82
2023/09/04 07:11:51;;;;;;;;;;;;;;;25.11;nan;102854.03;5064162;28;19917;-82
2023/09/04 07:14:17;;;;;;;;;;;;;;;25.30;nan;102854.84;5055996;28;19921;-82
2023/09/04 07:16:42;;;;;;;;;;;;;;;25.48;nan;102855.94;5059651;28;19916;-81
2023/09/04 07:19:07;;;;;;;;;;;;;;;25.65;nan;102849.91;5063060;28;20249;-82
2023/09/04 07:21:33;;;;;;;;;;;;;;;25.87;nan;102850.16;5061420;28;19944;-82
2023/09/04 07:23:58;;;;;;;;;;;;;;;26.12;nan;102846.94;5065206;28;19927;-82
2023/09/04 07:26:23;;;;;;;;;;;;;;;26.31;nan;102851.53;5059934;28;20426;-82
2023/09/04 07:28:48;;;;;;;;;;;;;;;26.48;nan;102851.78;5059868;28;20372;-82
2023/09/04 07:31:18;;;;;;;;;;;;;;;26.59;nan;102855.97;5060715;28;19982;-82
2023/09/04 07:33:43;;;;;;;;;;;;;;;26.74;nan;102844.63;5061187;28;19917;-82
2023/09/04 07:36:09;;;;;;;;;;;;;;;26.91;nan;102849.50;5062507;28;19931;-82
2023/09/04 07:38:34;;;;;;;;;;;;;;;27.00;nan;102860.63;5060684;28;19921;-82
2023/09/04 07:41:00;;;;;;;;;;;;;;;27.09;nan;102865.06;5057813;28;19925;-82
2023/09/04 07:43:25;;;;;;;;;;;;;;;27.22;nan;102870.84;5063339;28;19936;-82
2023/09/04 07:45:52;;;;;;;;;;;;;;;27.36;nan;102875.19;5057504;28;19920;-82
2023/09/04 07:48:18;;;;;;;;;;;;;;;27.54;nan;102872.59;5064483;28;19924;-82
2023/09/04 07:50:43;;;;;;;;;;;;;;;27.64;nan;102869.59;5058415;28;20399;-82
2023/09/04 07:53:08;;;;;;;;;;;;;;;27.71;nan;102863.69;5061888;28;20285;-82
2023/09/04 07:55:34;;;;;;;;;;;;;;;27.79;nan;102871.16;5061016;28;19924;-82
2023/09/04 07:57:59;;;;;;;;;;;;;;;27.92;nan;102862.03;5056067;28;19924;-82
2023/09/04 08:00:24;;;;;;;;;;;;;;;27.96;nan;102872.09;5062686;28;19928;-82
2023/09/04 08:02:50;;;;;;;;;;;;;;;28.06;nan;102870.22;5059699;28;19978;-82
2023/09/04 08:05:15;;;;;;;;;;;;;;;28.20;nan;102862.66;5064240;28;19959;-82
2023/09/04 08:07:40;;;;;;;;;;;;;;;28.36;nan;102863.88;5059979;28;19928;-82
2023/09/04 08:10:06;;;;;;;;;;;;;;;28.45;nan;102867.50;5061671;28;19955;-83
2023/09/04 08:12:31;;;;;;;;;;;;;;;28.65;nan;102868.06;5058923;28;20305;-82
2023/09/04 08:14:56;;;;;;;;;;;;;;;28.80;nan;102868.41;5060530;28;19931;-83
2023/09/04 08:17:22;;;;;;;;;;;;;;;28.96;nan;102868.00;5063634;28;19990;-83
2023/09/04 08:19:47;;;;;;;;;;;;;;;29.11;nan;102862.00;5061601;28;19917;-83
2023/09/04 08:22:12;;;;;;;;;;;;;;;29.27;nan;102860.41;5060427;28;19920;-82
2023/09/04 08:24:37;;;;;;;;;;;;;;;29.40;nan;102859.41;5060574;28;19932;-82
2023/09/04 08:27:03;;;;;;;;;;;;;;;29.50;nan;102858.31;5060178;28;19924;-83
2023/09/04 08:29:29;;;;;;;;;;;;;;;29.64;nan;102852.59;5062662;28;19916;-82
2023/09/04 08:31:54;;;;;;;;;;;;;;;29.69;nan;102852.44;5059991;28;20056;-82
2023/09/04 08:34:19;;;;;;;;;;;;;;;29.71;nan;102863.94;5060631;28;20530;-83
2023/09/04 08:36:46;;;;;;;;;;;;;;;29.81;nan;102860.06;5064799;28;19950;-83
2023/09/04 08:39:11;;;;;;;;;;;;;;;29.92;nan;102866.84;5062495;28;19916;-83
2023/09/04 08:41:37;;;;;;;;;;;;;;;30.06;nan;102870.25;5058447;28;20240;-83
2023/09/04 08:44:03;;;;;;;;;;;;;;;30.25;nan;102872.63;5056983;28;19946;-83
2023/09/04 08:46:29;;;;;;;;;;;;;;;30.40;nan;102880.38;5057543;28;19945;-83
2023/09/04 08:48:56;;;;;;;;;;;;;;;30.51;nan;102878.81;5054827;28;19974;-83
2023/09/04 08:51:21;;;;;;;;;;;;;;;30.67;nan;102879.09;5062917;28;19930;-82
2023/09/04 08:53:49;;;;;;;;;;;;;;;30.85;nan;102877.03;5060159;28;20346;-82
2023/09/04 08:56:15;;;;;;;;;;;;;;;30.94;nan;102883.34;5061028;28;20189;-82
2023/09/04 08:58:42;;;;;;;;;;;;;;;30.97;nan;102875.19;5057311;28;19995;-83
2023/09/04 09:01:09;;;;;;;;;;;;;;;31.11;nan;102882.41;5061132;28;19932;-83
2023/09/04 09:03:35;;;;;;;;;;;;;;;31.26;nan;102876.31;5060879;28;20236;-84
2023/09/04 09:06:00;;;;;;;;;;;;;;;31.39;nan;102866.88;5060396;28;20193;-83
2023/09/04 09:08:26;;;;;;;;;;;;;;;31.49;nan;102872.03;5060141;28;19917;-83
2023/09/04 09:10:52;;;;;;;;;;;;;;;31.54;nan;102876.53;5056746;28;20319;-83
2023/09/04 09:13:17;;;;;;;;;;;;;;;31.58;nan;102880.22;5054775;28;20743;-83
2023/09/04 09:15:43;;;;;;;;;;;;;;;31.70;nan;102877.50;5055616;28;19920;-83
2023/09/04 09:18:08;;;;;;;;;;;;;;;31.82;nan;102885.09;5055206;28;20448;-83
2023/09/04 09:20:34;;;;;;;;;;;;;;;31.97;nan;102890.00;5058648;28;20216;-83
2023/09/04 09:22:59;;;;;;;;;;;;;;;32.03;nan;102888.59;5059634;28;19924;-83
2023/09/04 09:25:26;;;;;;;;;;;;;;;32.12;nan;102882.94;5053917;28;20440;-83
2023/09/04 09:27:57;;;;;;;;;;;;;;;32.24;nan;102880.19;5055390;28;19920;-83
2023/09/04 09:30:22;;;;;;;;;;;;;;;32.31;nan;102879.66;5053974;28;19920;-83
2023/09/04 09:32:47;;;;;;;;;;;;;;;32.44;nan;102879.31;5060063;28;20017;-83
2023/09/04 09:35:15;;;;;;;;;;;;;;;32.54;nan;102877.25;5057773;28;20066;-84
2023/09/04 09:37:40;;;;;;;;;;;;;;;32.66;nan;102880.81;5060096;28;19921;-83
2023/09/04 09:40:08;;;;;;;;;;;;;;;32.79;nan;102886.34;5058105;28;19920;-83
2023/09/04 09:42:34;;;;;;;;;;;;;;;32.75;nan;102878.72;5055369;28;20167;-83
2023/09/04 09:45:00;;;;;;;;;;;;;;;32.78;nan;102859.75;5056940;28;19975;-83
2023/09/04 09:47:26;;;;;;;;;;;;;;;32.96;nan;102866.69;5055637;28;20389;-83
2023/09/04 09:49:54;;;;;;;;;;;;;;;33.21;nan;102867.41;5057971;28;19920;-83
2023/09/04 09:52:19;;;;;;;;;;;;;;;33.44;nan;102865.75;5056181;28;19921;-84
2023/09/04 09:54:46;;;;;;;;;;;;;;;33.65;nan;102866.34;5055123;28;20061;-84
2023/09/04 09:57:12;;;;;;;;;;;;;;;33.82;nan;102859.63;5054323;28;20359;-84
2023/09/04 09:59:44;;;;;;;;;;;;;;;33.98;nan;102856.91;5052072;28;20565;-83
2023/09/04 10:02:15;;;;;;;;;;;;;;;34.16;nan;102863.72;5050882;28;20162;-83
2023/09/04 10:04:41;;;;;;;;;;;;;;;34.28;nan;102856.44;5056367;28;19924;-83
2023/09/04 10:07:07;;;;;;;;;;;;;;;34.26;nan;102859.56;5056888;28;19920;-84
2023/09/04 10:09:42;;;;;;;;;;;;;;;34.32;nan;102857.34;5061405;28;20228;-83
2023/09/04 10:12:11;;;;;;;;;;;;;;;34.39;nan;102861.13;5063457;28;20082;-84
2023/09/04 10:14:41;;;;;;;;;;;;;;;34.43;nan;102864.78;5058373;28;20467;-83
2023/09/04 10:17:08;;;;;;;;;;;;;;;34.55;nan;102858.31;5063971;28;19947;-83
2023/09/04 10:19:35;;;;;;;;;;;;;;;34.70;nan;102860.28;5062719;28;19925;-84
2023/09/04 10:22:04;;;;;;;;;;;;;;;34.89;nan;102856.75;5062693;28;19927;-84
2023/09/04 10:24:35;;;;;;;;;;;;;;;34.95;nan;102855.28;5061767;28;20406;-84
2023/09/04 10:27:04;;;;;;;;;;;;;;;34.99;nan;102856.16;5056922;28;19924;-84
2023/09/04 10:29:31;;;;;;;;;;;;;;;35.06;nan;102847.97;5063035;28;19920;-84
2023/09/04 10:31:57;;;;;;;;;;;;;;;35.04;nan;102850.31;5062646;28;20148;-85
2023/09/04 10:34:22;;;;;;;;;;;;;;;35.09;nan;102844.44;5060598;28;20020;-84
2023/09/04 10:36:48;;;;;;;;;;;;;;;35.18;nan;102837.81;5061464;28;20019;-84
2023/09/04 10:39:13;;;;;;;;;;;;;;;35.27;nan;102832.84;5060973;28;20404;-84
2023/09/04 10:41:39;;;;;;;;;;;;;;;35.22;nan;102838.72;5062609;28;20050;-84
2023/09/04 10:44:04;;;;;;;;;;;;;;;35.26;nan;102836.81;5056284;28;19928;-84
2023/09/04 10:46:30;;;;;;;;;;;;;;;35.32;nan;102833.34;5062108;28;19932;-85
2023/09/04 10:48:55;;;;;;;;;;;;;;;35.40;nan;102826.78;5066284;28;19927;-85
2023/09/04 10:51:31;;;;;;;;;;;;;;;35.36;nan;102823.09;5062976;28;19916;-85
2023/09/04 10:53:57;;;;;;;;;;;;;;;35.36;nan;102825.88;5061065;28;19931;-84
2023/09/04 10:56:23;;;;;;;;;;;;;;;35.50;nan;102830.94;5063074;28;19924;-84
2023/09/04 10:59:02;;;;;;;;;;;;;;;35.68;nan;102826.47;5061733;28;20341;-84
2023/09/04 11:01:35;;;;;;;;;;;;;;;35.89;nan;102819.69;5059789;28;20569;-84
2023/09/04 11:04:02;;;;;;;;;;;;;;;36.08;nan;102825.19;5063182;28;20009;-84
2023/09/04 11:06:27;;;;;;;;;;;;;;;36.26;nan;102826.28;5058745;28;19920;-85
2023/09/04 11:08:53;;;;;;;;;;;;;;;36.50;nan;102822.28;5061922;28;19921;-84
2023/09/04 11:11:28;;;;;;;;;;;;;;;36.53;nan;102823.53;5058430;28;20039;-85
2023/09/04 11:14:12;;;;;;;;;;;;;;;36.48;nan;102821.06;5057181;28;19920;-85
2023/09/04 11:16:40;;;;;;;;;;;;;;;36.60;nan;102815.22;5055454;28;19920;-84
2023/09/04 11:19:07;;;;;;;;;;;;;;;36.83;nan;102818.78;5060227;28;19921;-86
2023/09/04 11:21:33;;;;;;;;;;;;;;;36.92;nan;102816.50;5057118;28;19929;-84
2023/09/04 11:23:59;;;;;;;;;;;;;;;37.00;nan;102817.41;5057725;28;19925;-84
2023/09/04 11:26:25;;;;;;;;;;;;;;;37.12;nan;102814.31;5053303;28;19924;-84
2023/09/04 11:28:50;;;;;;;;;;;;;;;37.08;nan;102821.06;5058995;28;19922;-84
2023/09/04 11:31:17;;;;;;;;;;;;;;;37.06;nan;102815.06;5057028;28;19928;-83
2023/09/04 11:33:47;;;;;;;;;;;;;;;37.09;nan;102805.91;5056620;28;19963;-83
2023/09/04 11:36:13;;;;;;;;;;;;;;;37.24;nan;102809.66;5055404;28;19986;-84
2023/09/04 11:38:38;;;;;;;;;;;;;;;37.36;nan;102803.84;5056638;28;20719;-84
2023/09/04 11:41:14;;;;;;;;;;;;;;;37.49;nan;102805.16;5057617;28;19974;-84
2023/09/04 11:43:41;;;;;;;;;;;;;;;37.57;nan;102809.66;5052063;28;20801;-85
2023/09/04 11:46:06;;;;;;;;;;;;;;;37.50;nan;102812.34;5055842;28;19921;-84
2023/09/04 11:48:32;;;;;;;;;;;;;;;37.34;nan;102803.41;5055685;28;19926;-84
2023/09/04 11:50:57;;;;;;;;;;;;;;;37.26;nan;102801.69;5057547;28;20062;-86
2023/09/04 11:53:23;;;;;;;;;;;;;;;37.23;nan;102803.28;5055926;28;20414;-84
2023/09/04 11:55:52;;;;;;;;;;;;;;;37.28;nan;102800.16;5057624;28;20015;-84
2023/09/04 11:58:17;;;;;;;;;;;;;;;37.31;nan;102790.19;5057402;28;19933;-83
2023/09/04 12:00:43;;;;;;;;;;;;;;;37.32;nan;102797.41;5057912;28;19924;-82
2023/09/04 12:03:08;;;;;;;;;;;;;;;37.42;nan;102800.31;5059834;28;20010;-84
2023/09/04 12:05:37;;;;;;;;;;;;;;;37.47;nan;102787.97;5059046;28;19930;-83
2023/09/04 12:08:03;;;;;;;;;;;;;;;37.43;nan;102793.53;5058366;28;20266;-84
2023/09/04 12:10:28;;;;;;;;;;;;;;;37.55;nan;102783.25;5052732;28;19971;-84
2023/09/04 12:12:54;;;;;;;;;;;;;;;37.76;nan;102780.69;5058625;28;19931;-83
2023/09/04 12:15:30;;;;;;;;;;;;;;;37.95;nan;102774.03;5057603;28;20463;-84
2023/09/04 12:17:57;;;;;;;;;;;;;;;38.04;nan;102768.88;5055779;28;19944;-84
2023/09/04 12:20:22;;;;;;;;;;;;;;;38.15;nan;102768.97;5056336;28;20739;-85
2023/09/04 12:22:55;;;;;;;;;;;;;;;38.30;nan;102765.09;5054584;28;19931;-84
2023/09/04 12:25:22;;;;;;;;;;;;;;;38.42;nan;102767.53;5056946;28;19932;-84
2023/09/04 12:27:48;;;;;;;;;;;;;;;38.58;nan;102776.41;5059557;28;20464;-84
2023/09/04 12:30:13;;;;;;;;;;;;;;;38.78;nan;102773.31;5056590;28;19924;-85
2023/09/04 12:32:38;;;;;;;;;;;;;;;38.97;nan;102767.41;5058454;28;19920;-84
2023/09/04 12:35:06;;;;;;;;;;;;;;;39.11;nan;102770.25;5059020;28;20198;-84
2023/09/04 12:37:34;;;;;;;;;;;;;;;39.22;nan;102761.88;5060290;28;20320;-84
2023/09/04 12:39:59;;;;;;;;;;;;;;;39.28;nan;102763.88;5061913;28;20482;-84
2023/09/04 12:42:25;;;;;;;;;;;;;;;39.38;nan;102755.88;5053204;28;19927;-84
2023/09/04 12:44:51;;;;;;;;;;;;;;;39.53;nan;102763.13;5053541;28;19968;-84
2023/09/04 12:47:16;;;;;;;;;;;;;;;39.70;nan;102751.13;5057368;28;20114;-84
2023/09/04 12:49:42;;;;;;;;;;;;;;;39.81;nan;102754.69;5059178;28;19925;-84
2023/09/04 12:52:07;;;;;;;;;;;;;;;39.91;nan;102746.69;5047646;28;20209;-83